createdAt,value
2016-11-23T00:00:44.110Z,99.99
2016-11-23T00:01:44.504Z,99.99
2016-11-23T00:02:44.351Z,99.99
2016-11-23T00:03:43.821Z,99.99
2016-11-23T00:04:44.024Z,99.99
2016-11-23T00:05:44.421Z,99.99
2016-11-23T00:06:43.760Z,99.99
2016-11-23T00:07:43.729Z,99.99
2016-11-23T00:08:43.953Z,99.99
2016-11-23T00:09:44.368Z,99.99
2016-11-23T00:10:44.330Z,99.99
2016-11-23T00:11:44.296Z,99.99
2016-11-23T00:12:44.334Z,99.99
2016-11-23T00:13:43.863Z,99.99
2016-11-23T00:14:44.257Z,99.99
2016-11-23T00:15:44.244Z,99.99
2016-11-23T00:16:44.228Z,99.99
2016-11-23T00:17:44.182Z,99.99
2016-11-23T00:18:43.446Z,99.99
2016-11-23T00:19:43.521Z,99.99
2016-11-23T00:20:44.131Z,99.99
2016-11-23T00:21:44.142Z,99.99
2016-11-23T00:22:43.453Z,99.99
2016-11-23T00:23:43.681Z,99.99
2016-11-23T00:24:44.086Z,99.99
2016-11-23T00:25:43.637Z,99.99
2016-11-23T00:26:43.294Z,99.99
2016-11-23T00:27:44.005Z,99.99
2016-11-23T00:28:43.991Z,99.99
2016-11-23T00:29:43.972Z,99.99
2016-11-23T00:30:43.531Z,99.99
2016-11-23T00:31:43.932Z,99.99
2016-11-23T00:32:43.500Z,99.99
2016-11-23T00:33:43.482Z,99.99
2016-11-23T00:34:43.462Z,99.99
2016-11-23T00:35:43.439Z,99.99
2016-11-23T00:36:43.435Z,99.99
2016-11-23T00:37:43.413Z,99.99
2016-11-23T00:38:43.388Z,99.99
2016-11-23T00:39:43.057Z,99.99
2016-11-23T00:40:43.612Z,99.99
2016-11-23T00:41:43.332Z,99.99
2016-11-23T00:42:43.707Z,99.99
2016-11-23T00:43:43.292Z,99.99
2016-11-23T00:44:43.539Z,99.99
2016-11-23T00:45:43.016Z,99.99
2016-11-23T00:46:42.996Z,99.99
2016-11-23T00:47:42.984Z,99.99
2016-11-23T00:48:43.613Z,99.99
2016-11-23T00:49:43.594Z,99.99
2016-11-23T00:50:43.153Z,99.99
2016-11-23T00:51:42.904Z,99.99
2016-11-23T00:52:43.408Z,99.99
2016-11-23T00:53:43.521Z,99.99
2016-11-23T00:54:42.837Z,99.99
2016-11-23T00:55:43.331Z,99.99
2016-11-23T00:56:42.808Z,99.99
2016-11-23T00:57:43.443Z,99.99
2016-11-23T00:58:43.412Z,99.99
2016-11-23T00:59:42.755Z,99.99
2016-11-23T01:00:42.733Z,99.99
2016-11-23T01:01:43.370Z,99.99
2016-11-23T01:02:42.933Z,99.99
2016-11-23T01:03:43.317Z,99.99
2016-11-23T01:04:42.893Z,99.99
2016-11-23T01:05:42.636Z,99.99
2016-11-23T01:06:42.877Z,99.99
2016-11-23T01:07:43.238Z,99.99
2016-11-23T01:08:43.213Z,99.99
2016-11-23T01:09:43.208Z,99.99
2016-11-23T01:10:42.785Z,99.99
2016-11-23T01:11:42.535Z,99.99
2016-11-23T01:12:42.495Z,99.99
2016-11-23T01:13:42.514Z,99.99
2016-11-23T01:14:42.385Z,99.99
2016-11-23T01:15:42.369Z,99.99
2016-11-23T01:16:43.081Z,99.99
2016-11-23T01:17:43.065Z,99.99
2016-11-23T01:18:42.628Z,99.99
2016-11-23T01:19:42.610Z,99.99
2016-11-23T01:20:42.601Z,99.99
2016-11-23T01:21:42.585Z,99.99
2016-11-23T01:22:42.966Z,99.99
2016-11-23T01:23:42.216Z,99.99
2016-11-23T01:24:42.513Z,99.99
2016-11-23T01:25:42.260Z,99.99
2016-11-23T01:26:42.245Z,99.99
2016-11-23T01:27:42.863Z,99.99
2016-11-23T01:28:42.850Z,99.99
2016-11-23T01:29:42.830Z,99.99
2016-11-23T01:30:42.838Z,99.99
2016-11-23T01:31:42.189Z,99.99
2016-11-23T01:32:42.367Z,99.99
2016-11-23T01:33:42.342Z,99.99
2016-11-23T01:34:42.098Z,99.99
2016-11-23T01:35:42.718Z,99.99
2016-11-23T01:36:42.047Z,99.99
2016-11-23T01:37:42.699Z,99.99
2016-11-23T01:38:42.743Z,99.99
2016-11-23T01:39:41.992Z,99.99
2016-11-23T01:40:42.217Z,99.99
2016-11-23T01:41:41.996Z,99.99
2016-11-23T01:42:41.939Z,99.99
2016-11-23T01:43:42.583Z,99.99
2016-11-23T01:44:42.617Z,99.99
2016-11-23T01:45:42.523Z,99.99
2016-11-23T01:46:41.875Z,99.99
2016-11-23T01:47:42.065Z,99.99
2016-11-23T01:48:42.509Z,99.99
2016-11-23T01:49:42.459Z,99.99
2016-11-23T01:50:42.443Z,99.99
2016-11-23T01:51:42.427Z,99.99
2016-11-23T01:52:41.762Z,99.99
2016-11-23T01:53:41.741Z,99.99
2016-11-23T01:54:42.364Z,99.99
2016-11-23T01:55:41.925Z,99.99
2016-11-23T01:56:42.236Z,99.99
2016-11-23T01:57:42.179Z,99.99
2016-11-23T01:58:41.869Z,99.99
2016-11-23T01:59:41.865Z,99.99
2016-11-23T02:00:42.239Z,99.99
2016-11-23T02:01:42.246Z,99.99
2016-11-23T02:02:41.800Z,99.99
2016-11-23T02:03:41.779Z,99.99
2016-11-23T02:04:42.175Z,99.99
2016-11-23T02:05:42.164Z,99.99
2016-11-23T02:06:42.137Z,99.99
2016-11-23T02:07:42.111Z,99.99
2016-11-23T02:08:42.119Z,99.99
2016-11-23T02:09:41.424Z,99.99
2016-11-23T02:10:41.648Z,99.99
2016-11-23T02:11:42.044Z,99.99
2016-11-23T02:12:41.387Z,99.99
2016-11-23T02:13:42.001Z,99.99
2016-11-23T02:14:41.256Z,99.99
2016-11-23T02:15:41.325Z,99.99
2016-11-23T02:16:41.803Z,99.99
2016-11-23T02:17:41.513Z,99.99
2016-11-23T02:18:41.256Z,99.99
2016-11-23T02:19:41.902Z,99.99
2016-11-23T02:20:41.873Z,99.99
2016-11-23T02:21:41.843Z,99.99
2016-11-23T02:22:41.824Z,99.99
2016-11-23T02:23:41.804Z,99.99
2016-11-23T02:24:41.804Z,99.99
2016-11-23T02:25:41.785Z,99.99
2016-11-23T02:26:41.605Z,99.99
2016-11-23T02:27:41.096Z,99.99
2016-11-23T02:28:41.715Z,99.99
2016-11-23T02:29:41.296Z,99.99
2016-11-23T02:30:41.689Z,99.99
2016-11-23T02:31:40.937Z,99.99
2016-11-23T02:32:40.995Z,99.99
2016-11-23T02:33:41.616Z,99.99
2016-11-23T02:34:41.189Z,99.99
2016-11-23T02:35:41.606Z,99.99
2016-11-23T02:36:41.425Z,99.99
2016-11-23T02:37:41.546Z,99.99
2016-11-23T02:38:41.528Z,99.99
2016-11-23T02:39:41.506Z,99.99
2016-11-23T02:40:41.484Z,99.99
2016-11-23T02:41:41.491Z,99.99
2016-11-23T02:42:41.041Z,99.99
2016-11-23T02:43:41.315Z,99.99
2016-11-23T02:44:41.426Z,99.99
2016-11-23T02:45:41.406Z,99.99
2016-11-23T02:46:40.731Z,99.99
2016-11-23T02:47:41.355Z,99.99
2016-11-23T02:48:40.699Z,99.99
2016-11-23T02:49:40.915Z,99.99
2016-11-23T02:50:41.291Z,99.99
2016-11-23T02:51:40.585Z,99.99
2016-11-23T02:52:40.855Z,99.99
2016-11-23T02:53:41.270Z,99.99
2016-11-23T02:54:41.224Z,99.99
2016-11-23T02:55:40.793Z,99.99
2016-11-23T02:56:40.539Z,99.99
2016-11-23T02:57:41.167Z,99.99
2016-11-23T02:58:40.740Z,99.99
2016-11-23T02:59:40.731Z,99.99
2016-11-23T03:00:41.145Z,99.99
2016-11-23T03:01:40.680Z,99.99
2016-11-23T03:02:40.956Z,99.99
2016-11-23T03:03:40.456Z,99.99
2016-11-23T03:04:40.623Z,99.99
2016-11-23T03:05:40.376Z,99.99
2016-11-23T03:06:40.585Z,99.99
2016-11-23T03:07:40.860Z,99.99
2016-11-23T03:08:40.266Z,99.99
2016-11-23T03:09:40.556Z,99.99
2016-11-23T03:10:40.929Z,99.99
2016-11-23T03:11:40.924Z,99.99
2016-11-23T03:12:40.905Z,99.99
2016-11-23T03:13:40.458Z,99.99
2016-11-23T03:14:40.849Z,99.99
2016-11-23T03:15:40.435Z,99.99
2016-11-23T03:16:40.086Z,99.99
2016-11-23T03:17:40.795Z,99.99
2016-11-23T03:18:40.651Z,99.99
2016-11-23T03:19:40.101Z,99.99
2016-11-23T03:20:40.329Z,99.99
2016-11-23T03:21:40.713Z,99.99
2016-11-23T03:22:39.995Z,99.99
2016-11-23T03:23:40.026Z,99.99
2016-11-23T03:24:40.007Z,99.99
2016-11-23T03:25:40.229Z,99.99
2016-11-23T03:26:40.617Z,99.99
2016-11-23T03:27:40.611Z,99.99
2016-11-23T03:28:40.603Z,99.99
2016-11-23T03:29:40.153Z,99.99
2016-11-23T03:30:39.909Z,99.99
2016-11-23T03:31:40.125Z,99.99
2016-11-23T03:32:39.784Z,99.99
2016-11-23T03:33:40.495Z,99.99
2016-11-23T03:34:40.460Z,99.99
2016-11-23T03:35:40.442Z,99.99
2016-11-23T03:36:40.442Z,99.99
2016-11-23T03:37:39.755Z,99.99
2016-11-23T03:38:40.379Z,99.99
2016-11-23T03:39:39.964Z,99.99
2016-11-23T03:40:39.714Z,99.99
2016-11-23T03:41:39.924Z,99.99
2016-11-23T03:42:40.326Z,99.99
2016-11-23T03:43:39.882Z,99.99
2016-11-23T03:44:39.642Z,99.99
2016-11-23T03:45:39.606Z,99.99
2016-11-23T03:46:39.827Z,99.99
2016-11-23T03:47:40.212Z,99.99
2016-11-23T03:48:40.202Z,99.99
2016-11-23T03:49:39.454Z,99.99
2016-11-23T03:50:40.163Z,99.99
2016-11-23T03:51:39.417Z,99.99
2016-11-23T03:52:39.395Z,99.99
2016-11-23T03:53:39.452Z,99.99
2016-11-23T03:54:39.677Z,99.99
2016-11-23T03:55:40.069Z,99.99
2016-11-23T03:56:40.045Z,99.99
2016-11-23T03:57:40.045Z,99.99
2016-11-23T03:58:39.993Z,99.99
2016-11-23T03:59:39.341Z,99.99
2016-11-23T04:00:39.316Z,99.99
2016-11-23T04:01:39.540Z,99.99
2016-11-23T04:02:39.277Z,99.99
2016-11-23T04:03:39.503Z,99.99
2016-11-23T04:04:39.240Z,99.99
2016-11-23T04:05:39.470Z,99.99
2016-11-23T04:06:39.204Z,99.99
2016-11-23T04:07:39.843Z,99.99
2016-11-23T04:08:39.163Z,99.99
2016-11-23T04:09:39.383Z,99.99
2016-11-23T04:10:39.792Z,99.99
2016-11-23T04:11:39.623Z,99.99
2016-11-23T04:12:39.752Z,99.99
2016-11-23T04:13:39.003Z,99.99
2016-11-23T04:14:39.694Z,99.99
2016-11-23T04:15:39.683Z,99.99
2016-11-23T04:16:39.718Z,99.99
2016-11-23T04:17:39.684Z,99.99
2016-11-23T04:18:39.634Z,99.99
2016-11-23T04:19:39.482Z,99.99
2016-11-23T04:20:38.942Z,99.99
2016-11-23T04:21:38.929Z,99.99
2016-11-23T04:22:38.899Z,99.99
2016-11-23T04:23:39.548Z,99.99
2016-11-23T04:24:39.523Z,99.99
2016-11-23T04:25:39.503Z,99.99
2016-11-23T04:26:39.073Z,99.99
2016-11-23T04:27:38.816Z,99.99
2016-11-23T04:28:38.710Z,99.99
2016-11-23T04:29:39.410Z,99.99
2016-11-23T04:30:39.416Z,99.99
2016-11-23T04:31:39.383Z,99.99
2016-11-23T04:32:39.369Z,99.99
2016-11-23T04:33:39.375Z,99.99
2016-11-23T04:34:39.318Z,99.99
2016-11-23T04:35:39.321Z,99.99
2016-11-23T04:36:39.281Z,99.99
2016-11-23T04:37:38.856Z,99.99
2016-11-23T04:38:39.254Z,99.99
2016-11-23T04:39:38.816Z,99.99
2016-11-23T04:40:38.563Z,99.99
2016-11-23T04:41:39.184Z,99.99
2016-11-23T04:42:38.759Z,99.99
2016-11-23T04:43:38.506Z,99.99
2016-11-23T04:44:39.175Z,99.99
2016-11-23T04:45:38.984Z,99.99
2016-11-23T04:46:38.454Z,99.99
2016-11-23T04:47:38.660Z,99.99
2016-11-23T04:48:38.399Z,99.99
2016-11-23T04:49:39.033Z,99.99
2016-11-23T04:50:38.603Z,99.99
2016-11-23T04:51:38.354Z,99.99
2016-11-23T04:52:38.827Z,99.99
2016-11-23T04:53:38.954Z,99.99
2016-11-23T04:54:38.295Z,99.99
2016-11-23T04:55:38.275Z,99.99
2016-11-23T04:56:38.909Z,99.99
2016-11-23T04:57:38.894Z,99.99
2016-11-23T04:58:38.443Z,99.99
2016-11-23T04:59:38.843Z,99.99
2016-11-23T05:00:38.414Z,99.99
2016-11-23T05:01:38.443Z,99.99
2016-11-23T05:02:38.149Z,99.99
2016-11-23T05:03:38.043Z,99.99
2016-11-23T05:04:38.598Z,99.99
2016-11-23T05:05:37.991Z,99.99
2016-11-23T05:06:38.304Z,99.99
2016-11-23T05:07:38.702Z,99.99
2016-11-23T05:08:38.700Z,99.99
2016-11-23T05:09:38.654Z,99.99
2016-11-23T05:10:38.226Z,99.99
2016-11-23T05:11:38.616Z,99.99
2016-11-23T05:12:38.599Z,99.99
2016-11-23T05:13:38.594Z,99.99
2016-11-23T05:14:37.818Z,99.99
2016-11-23T05:15:38.122Z,99.99
2016-11-23T05:16:38.513Z,99.99
2016-11-23T05:17:38.094Z,99.99
2016-11-23T05:18:38.074Z,99.99
2016-11-23T05:19:37.732Z,99.99
2016-11-23T05:20:38.019Z,99.99
2016-11-23T05:21:38.421Z,99.99
2016-11-23T05:22:38.394Z,99.99
2016-11-23T05:23:37.653Z,99.99
2016-11-23T05:24:38.370Z,99.99
2016-11-23T05:25:37.700Z,99.99
2016-11-23T05:26:38.325Z,99.99
2016-11-23T05:27:38.295Z,99.99
2016-11-23T05:28:38.284Z,99.99
2016-11-23T05:29:37.862Z,99.99
2016-11-23T05:30:37.829Z,99.99
2016-11-23T05:31:38.231Z,99.99
2016-11-23T05:32:38.100Z,99.99
2016-11-23T05:33:37.784Z,99.99
2016-11-23T05:34:37.761Z,99.99
2016-11-23T05:35:37.729Z,99.99
2016-11-23T05:36:37.719Z,99.99
2016-11-23T05:37:37.969Z,99.99
2016-11-23T05:38:37.941Z,99.99
2016-11-23T05:39:37.658Z,99.99
2016-11-23T05:40:37.898Z,99.99
2016-11-23T05:41:38.034Z,99.99
2016-11-23T05:42:38.004Z,99.99
2016-11-23T05:43:37.843Z,99.99
2016-11-23T05:44:37.562Z,99.99
2016-11-23T05:45:37.972Z,99.99
2016-11-23T05:46:37.931Z,99.99
2016-11-23T05:47:37.899Z,99.99
2016-11-23T05:48:37.475Z,99.99
2016-11-23T05:49:37.219Z,99.99
2016-11-23T05:50:37.847Z,99.99
2016-11-23T05:51:37.092Z,99.99
2016-11-23T05:52:37.805Z,99.99
2016-11-23T05:53:37.783Z,99.99
2016-11-23T05:54:37.758Z,99.99
2016-11-23T05:55:37.748Z,99.99
2016-11-23T05:56:37.309Z,99.99
2016-11-23T05:57:36.982Z,99.99
2016-11-23T05:58:37.560Z,99.99
2016-11-23T05:59:37.030Z,99.99
2016-11-23T06:00:37.663Z,99.99
2016-11-23T06:01:36.898Z,99.99
2016-11-23T06:02:37.248Z,99.99
2016-11-23T06:03:37.599Z,99.99
2016-11-23T06:04:37.591Z,99.99
2016-11-23T06:05:37.567Z,99.99
2016-11-23T06:06:37.547Z,99.99
2016-11-23T06:07:37.514Z,99.99
2016-11-23T06:08:37.088Z,99.99
2016-11-23T06:09:37.472Z,99.99
2016-11-23T06:10:37.472Z,99.99
2016-11-23T06:11:37.439Z,99.99
2016-11-23T06:12:36.775Z,99.99
2016-11-23T06:13:37.401Z,99.99
2016-11-23T06:14:37.377Z,99.99
2016-11-23T06:15:37.346Z,99.99
2016-11-23T06:16:37.334Z,99.99
2016-11-23T06:17:36.904Z,99.99
2016-11-23T06:18:37.289Z,99.99
2016-11-23T06:19:37.298Z,99.99
2016-11-23T06:20:36.612Z,99.99
2016-11-23T06:21:37.216Z,99.99
2016-11-23T06:22:37.211Z,99.99
2016-11-23T06:23:37.077Z,99.99
2016-11-23T06:24:37.183Z,99.99
2016-11-23T06:25:37.171Z,99.99
2016-11-23T06:26:37.055Z,99.99
2016-11-23T06:27:36.979Z,99.99
2016-11-23T06:28:36.972Z,99.99
2016-11-23T06:29:36.670Z,99.99
2016-11-23T06:30:37.059Z,99.99
2016-11-23T06:31:36.396Z,99.99
2016-11-23T06:32:36.610Z,99.99
2016-11-23T06:33:36.593Z,99.99
2016-11-23T06:34:36.983Z,99.99
2016-11-23T06:35:36.360Z,99.99
2016-11-23T06:36:36.960Z,99.99
2016-11-23T06:37:36.273Z,99.99
2016-11-23T06:38:36.174Z,99.99
2016-11-23T06:39:36.878Z,99.99
2016-11-23T06:40:36.903Z,99.99
2016-11-23T06:41:36.838Z,99.99
2016-11-23T06:42:36.439Z,99.99
2016-11-23T06:43:36.400Z,99.99
2016-11-23T06:44:36.144Z,99.99
2016-11-23T06:45:36.349Z,99.99
2016-11-23T06:46:36.339Z,99.99
2016-11-23T06:47:36.724Z,99.99
2016-11-23T06:48:36.059Z,99.99
2016-11-23T06:49:36.710Z,99.99
2016-11-23T06:50:36.031Z,99.99
2016-11-23T06:51:36.670Z,99.99
2016-11-23T06:52:36.652Z,99.99
2016-11-23T06:53:35.876Z,99.99
2016-11-23T06:54:36.191Z,99.99
2016-11-23T06:55:35.927Z,99.99
2016-11-23T06:56:36.136Z,99.99
2016-11-23T06:57:35.890Z,99.99
2016-11-23T06:58:36.523Z,99.99
2016-11-23T06:59:36.091Z,99.99
2016-11-23T07:00:35.829Z,99.99
2016-11-23T07:01:36.465Z,99.99
2016-11-23T07:02:35.790Z,99.99
2016-11-23T07:03:36.004Z,99.99
2016-11-23T07:04:36.404Z,99.99
2016-11-23T07:05:36.390Z,99.99
2016-11-23T07:06:36.359Z,99.99
2016-11-23T07:07:36.333Z,99.99
2016-11-23T07:08:36.317Z,99.99
2016-11-23T07:09:36.289Z,99.99
2016-11-23T07:10:36.278Z,99.99
2016-11-23T07:11:36.270Z,99.99
2016-11-23T07:12:36.222Z,99.99
2016-11-23T07:13:35.485Z,99.99
2016-11-23T07:14:36.208Z,99.99
2016-11-23T07:15:35.461Z,99.99
2016-11-23T07:16:35.439Z,99.99
2016-11-23T07:17:35.407Z,99.99
2016-11-23T07:18:35.466Z,99.99
2016-11-23T07:19:35.371Z,99.99
2016-11-23T07:20:35.439Z,99.99
2016-11-23T07:21:36.069Z,99.99
2016-11-23T07:22:35.303Z,99.99
2016-11-23T07:23:36.019Z,99.99
2016-11-23T07:24:35.261Z,99.99
2016-11-23T07:25:35.578Z,99.99
2016-11-23T07:26:35.958Z,99.99
2016-11-23T07:27:35.949Z,99.99
2016-11-23T07:28:35.918Z,99.99
2016-11-23T07:29:35.899Z,99.99
2016-11-23T07:30:35.899Z,99.99
2016-11-23T07:31:35.864Z,99.99
2016-11-23T07:32:35.858Z,99.99
2016-11-23T07:33:35.813Z,99.99
2016-11-23T07:34:35.148Z,99.99
2016-11-23T07:35:35.798Z,99.99
2016-11-23T07:36:35.762Z,99.99
2016-11-23T07:37:35.759Z,99.99
2016-11-23T07:38:35.734Z,99.99
2016-11-23T07:39:34.977Z,99.99
2016-11-23T07:40:35.038Z,99.99
2016-11-23T07:41:35.668Z,99.99
2016-11-23T07:42:35.238Z,99.99
2016-11-23T07:43:35.218Z,99.99
2016-11-23T07:44:35.609Z,99.99
2016-11-23T07:45:35.173Z,99.99
2016-11-23T07:46:35.166Z,99.99
2016-11-23T07:47:35.560Z,99.99
2016-11-23T07:48:35.122Z,99.99
2016-11-23T07:49:34.916Z,99.99
2016-11-23T07:50:35.503Z,99.99
2016-11-23T07:51:35.088Z,99.99
2016-11-23T07:52:34.712Z,99.99
2016-11-23T07:53:35.018Z,99.99
2016-11-23T07:54:35.418Z,99.99
2016-11-23T07:55:35.383Z,99.99
2016-11-23T07:56:34.718Z,99.99
2016-11-23T07:57:34.797Z,99.99
2016-11-23T07:58:35.329Z,99.99
2016-11-23T07:59:34.578Z,99.99
2016-11-23T08:00:35.288Z,99.99
2016-11-23T08:01:35.265Z,99.99
2016-11-23T08:02:35.271Z,99.99
2016-11-23T08:03:34.502Z,99.99
2016-11-23T08:04:34.497Z,99.99
2016-11-23T08:05:35.203Z,99.99
2016-11-23T08:06:35.178Z,99.99
2016-11-23T08:07:34.436Z,99.99
2016-11-23T08:08:34.403Z,99.99
2016-11-23T08:09:34.721Z,99.99
2016-11-23T08:10:34.369Z,99.99
2016-11-23T08:11:34.939Z,99.99
2016-11-23T08:12:34.403Z,99.99
2016-11-23T08:13:34.628Z,99.99
2016-11-23T08:14:34.367Z,99.99
2016-11-23T08:15:34.278Z,99.99
2016-11-23T08:16:35.008Z,99.99
2016-11-23T08:17:34.553Z,99.99
2016-11-23T08:18:34.528Z,99.99
2016-11-23T08:19:34.934Z,99.99
2016-11-23T08:20:34.894Z,99.99
2016-11-23T08:21:34.758Z,99.99
2016-11-23T08:22:34.866Z,99.99
2016-11-23T08:23:34.115Z,99.99
2016-11-23T08:24:34.098Z,99.99
2016-11-23T08:25:34.686Z,99.99
2016-11-23T08:26:34.131Z,99.99
2016-11-23T08:27:34.788Z,99.99
2016-11-23T08:28:34.125Z,99.99
2016-11-23T08:29:34.728Z,99.99
2016-11-23T08:30:34.708Z,99.99
2016-11-23T08:31:34.687Z,99.99
2016-11-23T08:32:34.678Z,99.99
2016-11-23T08:33:34.661Z,99.99
2016-11-23T08:34:34.623Z,99.99
2016-11-23T08:35:34.602Z,99.99
2016-11-23T08:36:34.582Z,99.99
2016-11-23T08:37:33.844Z,99.99
2016-11-23T08:38:34.148Z,99.99
2016-11-23T08:39:33.898Z,99.99
2016-11-23T08:40:34.512Z,99.99
2016-11-23T08:41:34.509Z,99.99
2016-11-23T08:42:34.478Z,99.99
2016-11-23T08:43:33.740Z,99.99
2016-11-23T08:44:33.796Z,99.99
2016-11-23T08:45:34.018Z,99.99
2016-11-23T08:46:34.415Z,99.99
2016-11-23T08:47:34.399Z,99.99
2016-11-23T08:48:33.640Z,99.99
2016-11-23T08:49:34.352Z,99.99
2016-11-23T08:50:34.331Z,99.99
2016-11-23T08:51:33.894Z,99.99
2016-11-23T08:52:33.647Z,99.99
2016-11-23T08:53:33.861Z,99.99
2016-11-23T08:54:34.118Z,99.99
2016-11-23T08:55:34.213Z,99.99
2016-11-23T08:56:34.224Z,99.99
2016-11-23T08:57:33.549Z,99.99
2016-11-23T08:58:34.173Z,99.99
2016-11-23T08:59:34.149Z,99.99
2016-11-23T09:00:33.498Z,99.99
2016-11-23T09:01:34.111Z,99.99
2016-11-23T09:02:33.683Z,99.99
2016-11-23T09:03:33.431Z,99.99
2016-11-23T09:04:33.422Z,99.99
2016-11-23T09:05:33.382Z,99.99
2016-11-23T09:06:34.031Z,99.99
2016-11-23T09:07:34.018Z,99.99
2016-11-23T09:08:33.244Z,99.99
2016-11-23T09:09:33.308Z,99.99
2016-11-23T09:10:33.939Z,99.99
2016-11-23T09:11:33.514Z,99.99
2016-11-23T09:12:33.259Z,99.99
2016-11-23T09:13:33.248Z,99.99
2016-11-23T09:14:33.860Z,99.99
2016-11-23T09:15:33.451Z,99.99
2016-11-23T09:16:33.842Z,99.99
2016-11-23T09:17:33.797Z,99.99
2016-11-23T09:18:33.789Z,99.99
2016-11-23T09:19:33.780Z,99.99
2016-11-23T09:20:33.109Z,99.99
2016-11-23T09:21:33.007Z,99.99
2016-11-23T09:22:32.986Z,99.99
2016-11-23T09:23:33.290Z,99.99
2016-11-23T09:24:32.940Z,99.99
2016-11-23T09:25:33.675Z,99.99
2016-11-23T09:26:33.626Z,99.99
2016-11-23T09:27:33.207Z,99.99
2016-11-23T09:28:33.201Z,99.99
2016-11-23T09:29:32.940Z,99.99
2016-11-23T09:30:33.161Z,99.99
2016-11-23T09:31:33.533Z,99.99
2016-11-23T09:32:32.797Z,99.99
2016-11-23T09:33:32.868Z,99.99
2016-11-23T09:34:33.521Z,99.99
2016-11-23T09:35:32.823Z,99.99
2016-11-23T09:36:32.798Z,99.99
2016-11-23T09:37:33.019Z,99.99
2016-11-23T09:38:32.998Z,99.99
2016-11-23T09:39:32.744Z,99.99
2016-11-23T09:40:32.968Z,99.99
2016-11-23T09:41:32.959Z,99.99
2016-11-23T09:42:32.608Z,99.99
2016-11-23T09:43:32.904Z,99.99
2016-11-23T09:44:33.309Z,99.99
2016-11-23T09:45:32.693Z,99.99
2016-11-23T09:46:32.850Z,99.99
2016-11-23T09:47:33.241Z,99.99
2016-11-23T09:48:32.498Z,99.99
2016-11-23T09:49:33.226Z,99.99
2016-11-23T09:50:32.779Z,99.99
2016-11-23T09:51:32.580Z,99.99
2016-11-23T09:52:33.170Z,99.99
2016-11-23T09:53:32.725Z,99.99
2016-11-23T09:54:33.114Z,99.99
2016-11-23T09:55:33.092Z,99.99
2016-11-23T09:56:33.096Z,99.99
2016-11-23T09:57:32.332Z,99.99
2016-11-23T09:58:32.630Z,99.99
2016-11-23T09:59:33.030Z,99.99
2016-11-23T10:00:32.359Z,99.99
2016-11-23T10:01:32.990Z,99.99
2016-11-23T10:02:32.238Z,99.99
2016-11-23T10:03:32.951Z,99.99
2016-11-23T10:04:32.945Z,99.99
2016-11-23T10:05:32.919Z,99.99
2016-11-23T10:06:32.488Z,99.99
2016-11-23T10:07:32.466Z,99.99
2016-11-23T10:08:32.879Z,99.99
2016-11-23T10:09:32.862Z,99.99
2016-11-23T10:10:32.413Z,99.99
2016-11-23T10:11:32.802Z,99.99
2016-11-23T10:12:32.783Z,99.99
2016-11-23T10:13:32.363Z,99.99
2016-11-23T10:14:32.768Z,99.99
2016-11-23T10:15:32.324Z,99.99
2016-11-23T10:16:32.307Z,99.99
2016-11-23T10:17:32.044Z,99.99
2016-11-23T10:18:31.953Z,99.99
2016-11-23T10:19:32.636Z,99.99
2016-11-23T10:20:32.662Z,99.99
2016-11-23T10:21:32.223Z,99.99
2016-11-23T10:22:32.607Z,99.99
2016-11-23T10:23:32.172Z,99.99
2016-11-23T10:24:31.936Z,99.99
2016-11-23T10:25:32.558Z,99.99
2016-11-23T10:26:32.542Z,99.99
2016-11-23T10:27:31.875Z,99.99
2016-11-23T10:28:32.510Z,99.99
2016-11-23T10:29:31.751Z,99.99
2016-11-23T10:30:32.475Z,99.99
2016-11-23T10:31:32.033Z,99.99
2016-11-23T10:32:32.427Z,99.99
2016-11-23T10:33:32.000Z,99.99
2016-11-23T10:34:32.395Z,99.99
2016-11-23T10:35:32.384Z,99.99
2016-11-23T10:36:32.384Z,99.99
2016-11-23T10:37:31.704Z,99.99
2016-11-23T10:38:32.322Z,99.99
2016-11-23T10:39:32.186Z,99.99
2016-11-23T10:40:31.658Z,99.99
2016-11-23T10:41:31.561Z,99.99
2016-11-23T10:42:32.271Z,99.99
2016-11-23T10:43:31.832Z,99.99
2016-11-23T10:44:32.239Z,99.99
2016-11-23T10:45:32.093Z,99.99
2016-11-23T10:46:32.217Z,99.99
2016-11-23T10:47:31.775Z,99.99
2016-11-23T10:48:32.149Z,99.99
2016-11-23T10:49:31.514Z,99.99
2016-11-23T10:50:32.135Z,99.99
2016-11-23T10:51:31.737Z,99.99
2016-11-23T10:52:32.095Z,99.99
2016-11-23T10:53:32.094Z,99.99
2016-11-23T10:54:32.063Z,99.99
2016-11-23T10:55:31.936Z,99.99
2016-11-23T10:56:31.633Z,99.99
2016-11-23T10:57:32.061Z,98.96
2016-11-23T10:58:32.018Z,98.24
2016-11-23T10:59:32.006Z,98.05
2016-11-23T11:00:31.565Z,99.73
2016-11-23T11:01:31.646Z,99.05
2016-11-23T11:02:31.965Z,99.53
2016-11-23T11:03:31.949Z,98.96
2016-11-23T11:04:31.908Z,98.28
2016-11-23T11:05:31.759Z,98.96
2016-11-23T11:06:31.476Z,98.67
2016-11-23T11:07:31.883Z,98.14
2016-11-23T11:08:31.454Z,98
2016-11-23T11:09:31.864Z,99.63
2016-11-23T11:10:31.431Z,99.99
2016-11-23T11:11:31.444Z,99.99
2016-11-23T11:12:31.666Z,99.99
2016-11-23T11:13:31.831Z,99.99
2016-11-23T11:14:31.786Z,99.99
2016-11-23T11:15:31.727Z,99.99
2016-11-23T11:16:31.346Z,99.99
2016-11-23T11:17:31.077Z,99.15
2016-11-23T11:18:31.717Z,98.67
2016-11-23T11:19:31.345Z,99.15
2016-11-23T11:20:31.047Z,98.67
2016-11-23T11:21:31.728Z,98.48
2016-11-23T11:22:31.674Z,97.95
2016-11-23T11:23:31.586Z,97.86
2016-11-23T11:24:31.658Z,98.14
2016-11-23T11:25:31.612Z,98.24
2016-11-23T11:26:30.967Z,97.86
2016-11-23T11:27:30.956Z,97.38
2016-11-23T11:28:30.938Z,97.19
2016-11-23T11:29:31.557Z,96.89
2016-11-23T11:30:31.420Z,96.8
2016-11-23T11:31:30.941Z,96.61
2016-11-23T11:32:31.524Z,96.37
2016-11-23T11:33:31.520Z,96.8
2016-11-23T11:34:30.768Z,97.38
2016-11-23T11:35:31.498Z,98.05
2016-11-23T11:36:31.476Z,97.86
2016-11-23T11:37:30.719Z,98.53
2016-11-23T11:38:31.024Z,97.86
2016-11-23T11:39:31.294Z,97.09
2016-11-23T11:40:30.685Z,96.61
2016-11-23T11:41:31.257Z,96.27
2016-11-23T11:42:31.392Z,96.66
2016-11-23T11:43:31.465Z,96.8
2016-11-23T11:44:31.363Z,97.28
2016-11-23T11:45:31.328Z,97.33
2016-11-23T11:46:30.679Z,97.9
2016-11-23T11:47:30.587Z,98.38
2016-11-23T11:48:31.287Z,99.1
2016-11-23T11:49:31.287Z,99.1
2016-11-23T11:50:30.537Z,99.1
2016-11-23T11:51:30.625Z,99.77
2016-11-23T11:52:30.594Z,99.68
2016-11-23T11:53:30.811Z,99.68
2016-11-23T11:54:31.227Z,99.91
2016-11-23T11:55:30.480Z,99.99
2016-11-23T11:56:30.545Z,99.99
2016-11-23T11:57:31.217Z,99.99
2016-11-23T11:58:30.420Z,99.99
2016-11-23T11:59:30.719Z,99.99
2016-11-23T12:00:30.719Z,99.99
2016-11-23T12:01:30.691Z,99.99
2016-11-23T12:02:31.076Z,99.99
2016-11-23T12:03:30.419Z,99.99
2016-11-23T12:04:30.412Z,99.99
2016-11-23T12:05:30.947Z,99.99
2016-11-23T12:06:31.020Z,99.99
2016-11-23T12:07:30.374Z,99.99
2016-11-23T12:08:30.267Z,99.99
2016-11-23T12:09:30.977Z,99.99
2016-11-23T12:10:30.307Z,99.99
2016-11-23T12:11:30.966Z,99.99
2016-11-23T12:12:30.928Z,99.99
2016-11-23T12:13:30.496Z,99.99
2016-11-23T12:14:30.254Z,99.99
2016-11-23T12:15:30.454Z,99.99
2016-11-23T12:16:30.208Z,99.99
2016-11-23T12:17:30.429Z,99.99
2016-11-23T12:18:30.820Z,99.99
2016-11-23T12:19:30.158Z,99.99
2016-11-23T12:20:30.785Z,99.99
2016-11-23T12:21:30.049Z,99.99
2016-11-23T12:22:30.763Z,99.99
2016-11-23T12:23:30.017Z,99.99
2016-11-23T12:24:30.748Z,99.99
2016-11-23T12:25:30.757Z,99.99
2016-11-23T12:26:29.963Z,99.99
2016-11-23T12:27:30.029Z,99.99
2016-11-23T12:28:30.267Z,99.99
2016-11-23T12:29:30.662Z,99.99
2016-11-23T12:30:30.637Z,99.99
2016-11-23T12:31:29.966Z,99.99
2016-11-23T12:32:30.597Z,99.99
2016-11-23T12:33:30.177Z,99.99
2016-11-23T12:34:30.147Z,99.99
2016-11-23T12:35:30.542Z,99.99
2016-11-23T12:36:29.886Z,99.99
2016-11-23T12:37:30.523Z,99.99
2016-11-23T12:38:30.355Z,99.99
2016-11-23T12:39:30.499Z,99.99
2016-11-23T12:40:30.054Z,99.99
2016-11-23T12:41:30.033Z,99.99
2016-11-23T12:42:29.774Z,99.99
2016-11-23T12:43:29.767Z,99.99
2016-11-23T12:44:29.979Z,99.99
2016-11-23T12:45:30.374Z,99.99
2016-11-23T12:46:29.953Z,99.99
2016-11-23T12:47:29.702Z,99.99
2016-11-23T12:48:30.342Z,99.99
2016-11-23T12:49:29.585Z,99.99
2016-11-23T12:50:29.625Z,99.99
2016-11-23T12:51:30.286Z,99.99
2016-11-23T12:52:29.851Z,99.99
2016-11-23T12:53:29.596Z,99.99